Time;durP1;ratioP1;P1;durP2;ratioP2;P2;SDS_P1;SDS_P2;PMS_P1;PMS_P2;Temp;Humidity;BMP_temperature;BMP_pressure;BME280_temperature;BME280_humidity;BME280_pressure;Samples;Min_cycle;Max_cycle;Signal;HPM_P1;HPM_P2
2022/12/18 00:01:20;;;;;;;78.15;37.13;;;1.30;99.90;;;;;;5112795;28;20032;-77
2022/12/18 00:03:46;;;;;;;78.28;37.35;;;1.30;99.90;;;;;;5111829;28;20023;-76
2022/12/18 00:06:13;;;;;;;;;;;1.30;99.90;;;;;;5113768;28;20076;-76
2022/12/18 00:08:39;;;;;;;83.53;37.42;;;1.30;99.90;;;;;;5113299;28;19908;-76
2022/12/18 00:11:07;;;;;;;81.97;36.45;;;1.30;99.90;;;;;;5113369;28;20031;-77
2022/12/18 00:13:32;;;;;;;88.30;39.35;;;1.30;99.90;;;;;;5110948;28;20077;-77
2022/12/18 00:16:05;;;;;;;;;;;1.30;99.90;;;;;;5110342;28;20540;-77
2022/12/18 00:18:32;;;;;;;82.25;37.30;;;1.30;99.90;;;;;;5109660;28;19908;-77
2022/12/18 00:21:07;;;;;;;90.07;36.22;;;1.20;99.90;;;;;;5090763;28;20088;-77
2022/12/18 00:23:34;;;;;;;78.43;38.10;;;1.30;99.90;;;;;;5090298;28;20694;-76
2022/12/18 00:26:01;;;;;;;82.43;38.95;;;1.30;99.90;;;;;;5090859;28;20274;-77
2022/12/18 00:28:27;;;;;;;77.20;36.75;;;1.30;99.90;;;;;;5091243;28;20039;-77
2022/12/18 00:31:08;;;;;;;76.53;36.15;;;1.30;99.90;;;;;;5090962;28;20514;-77
2022/12/18 00:33:34;;;;;;;84.82;37.33;;;1.30;99.90;;;;;;5090729;28;20024;-76
2022/12/18 00:36:07;;;;;;;89.47;39.15;;;1.30;99.90;;;;;;5109688;28;20110;-77
2022/12/18 00:38:33;;;;;;;78.13;35.72;;;1.30;99.90;;;;;;5090419;28;20024;-76
2022/12/18 00:40:59;;;;;;;75.13;35.38;;;1.30;99.90;;;;;;5110062;28;20028;-77
2022/12/18 00:43:26;;;;;;;;;;;1.30;99.90;;;;;;5090960;28;20648;-76
2022/12/18 00:45:51;;;;;;;85.15;37.20;;;1.30;99.90;;;;;;5091241;28;19914;-77
2022/12/18 00:48:17;;;;;;;;;;;1.40;99.90;;;;;;5110364;28;20027;-77
2022/12/18 00:50:43;;;;;;;84.88;37.47;;;1.30;99.90;;;;;;5091301;28;20391;-77
2022/12/18 00:53:09;;;;;;;;;;;1.30;99.90;;;;;;5091284;28;20055;-78
2022/12/18 00:58:22;;;;;;;94.03;41.33;;;1.30;99.90;;;;;;5108786;28;20046;-76
2022/12/18 01:00:47;;;;;;;;;;;1.30;99.90;;;;;;5090995;28;20027;-77
2022/12/18 01:03:14;;;;;;;94.90;39.85;;;1.30;99.90;;;;;;5091206;28;19911;-76
2022/12/18 01:05:41;;;;;;;82.85;39.70;;;1.30;99.90;;;;;;5108604;28;20020;-76
2022/12/18 01:08:07;;;;;;;90.93;41.03;;;1.30;99.90;;;;;;5108629;28;20472;-76
2022/12/18 01:10:32;;;;;;;;;;;1.20;99.90;;;;;;5091171;28;20031;-76
2022/12/18 01:12:58;;;;;;;93.40;40.67;;;1.20;99.90;;;;;;5109219;28;19907;-77
2022/12/18 01:15:23;;;;;;;;;;;1.20;99.90;;;;;;5090797;28;20042;-76
2022/12/18 01:17:52;;;;;;;99.63;42.28;;;1.30;99.90;;;;;;5090399;28;19907;-76
2022/12/18 01:20:18;;;;;;;96.78;41.78;;;1.30;99.90;;;;;;5090958;28;20043;-77
2022/12/18 01:22:44;;;;;;;;;;;1.20;99.90;;;;;;5091080;28;20044;-75
2022/12/18 01:25:09;;;;;;;89.90;39.85;;;1.20;99.90;;;;;;5114438;28;20004;-78
2022/12/18 01:27:35;;;;;;;;;;;1.20;99.90;;;;;;5109482;28;20101;-77
2022/12/18 01:30:01;;;;;;;90.07;39.40;;;1.20;99.90;;;;;;5090992;28;19911;-77
2022/12/18 01:32:30;;;;;;;;;;;1.20;99.90;;;;;;5091261;28;20039;-77
2022/12/18 01:34:55;;;;;;;90.38;37.58;;;1.20;99.90;;;;;;5090986;28;19907;-77
2022/12/18 01:37:21;;;;;;;;;;;1.30;99.90;;;;;;5109957;28;20087;-77
2022/12/18 01:39:46;;;;;;;88.00;38.60;;;1.20;99.90;;;;;;5110108;28;19922;-77
2022/12/18 01:42:13;;;;;;;;;;;1.20;99.90;;;;;;5110198;28;20039;-76
2022/12/18 01:44:57;;;;;;;82.53;37.20;;;1.30;99.90;;;;;;5091687;28;20371;-77
2022/12/18 01:47:35;;;;;;;86.95;36.97;;;1.20;99.90;;;;;;5091351;28;20424;-77
2022/12/18 01:50:06;;;;;;;95.90;38.08;;;1.20;99.90;;;;;;5092104;28;20441;-78
2022/12/18 01:52:33;;;;;;;80.18;36.33;;;1.20;99.90;;;;;;5109765;28;20490;-78
2022/12/18 01:55:01;;;;;;;85.88;38.35;;;1.20;99.90;;;;;;5110320;28;20042;-77
2022/12/18 01:57:28;;;;;;;82.45;38.42;;;1.20;99.90;;;;;;5092223;28;20098;-77
2022/12/18 01:59:59;;;;;;;80.90;36.40;;;1.20;99.90;;;;;;5109858;28;20062;-78
2022/12/18 02:02:28;;;;;;;81.57;37.13;;;1.20;99.90;;;;;;5110173;28;20042;-78
2022/12/18 02:04:54;;;;;;;79.95;37.53;;;1.20;99.90;;;;;;5092269;28;20055;-77
2022/12/18 02:07:25;;;;;;;;;;;1.20;99.90;;;;;;5093156;28;20062;-77
2022/12/18 02:10:10;;;;;;;78.93;34.22;;;1.20;99.90;;;;;;5112562;28;19911;-78
2022/12/18 02:13:01;;;;;;;84.85;37.40;;;1.20;99.90;;;;;;5113922;28;20036;-78
2022/12/18 02:15:43;;;;;;;73.75;34.95;;;1.20;99.90;;;;;;5085449;28;20044;-77
2022/12/18 02:18:19;;;;;;;79.78;37.72;;;1.30;99.90;;;;;;5096982;28;20089;-78
2022/12/18 02:20:54;;;;;;;79.20;35.95;;;1.20;99.90;;;;;;5096564;28;20052;-78
2022/12/18 02:23:25;;;;;;;84.10;38.50;;;1.20;99.90;;;;;;5097174;28;20031;-77
2022/12/18 02:26:06;;;;;;;77.43;36.72;;;1.30;99.90;;;;;;5116000;28;20076;-79
2022/12/18 02:28:35;;;;;;;73.30;35.40;;;1.20;99.90;;;;;;5097633;28;20051;-77
2022/12/18 02:31:05;;;;;;;74.47;36.88;;;1.20;99.90;;;;;;5097854;28;20042;-77
2022/12/18 02:33:33;;;;;;;68.85;33.25;;;1.30;99.90;;;;;;5101193;28;20028;-78
2022/12/18 02:36:01;;;;;;;73.40;33.58;;;1.30;99.90;;;;;;5104465;28;20034;-77
2022/12/18 02:38:29;;;;;;;65.20;32.10;;;1.30;99.90;;;;;;5096209;28;20570;-76
2022/12/18 02:40:55;;;;;;;64.55;32.80;;;1.30;99.90;;;;;;5092996;28;20029;-76
2022/12/18 02:43:21;;;;;;;68.80;33.28;;;1.30;99.90;;;;;;5092839;28;20637;-76
2022/12/18 02:45:48;;;;;;;;;;;1.30;99.90;;;;;;5093306;28;20030;-77
2022/12/18 02:48:14;;;;;;;68.55;33.05;;;1.30;99.90;;;;;;5111788;28;19907;-77
2022/12/18 02:50:44;;;;;;;;;;;1.30;99.90;;;;;;5093231;28;20089;-77
2022/12/18 02:53:27;;;;;;;69.20;32.45;;;1.30;99.90;;;;;;5092442;28;19915;-77
2022/12/18 02:56:07;;;;;;;65.38;32.88;;;1.30;99.90;;;;;;5092835;28;20087;-77
2022/12/18 02:58:49;;;;;;;66.65;31.60;;;1.30;99.90;;;;;;5111352;28;20070;-77
2022/12/18 03:01:33;;;;;;;64.53;31.67;;;1.30;99.90;;;;;;5111296;28;20035;-77
2022/12/18 03:04:09;;;;;;;72.57;32.42;;;1.30;99.90;;;;;;5093181;28;20027;-78
2022/12/18 03:06:40;;;;;;;67.55;32.67;;;1.30;99.90;;;;;;5110216;28;20146;-77
2022/12/18 03:09:12;;;;;;;66.50;31.98;;;1.30;99.90;;;;;;5093284;28;20024;-77
2022/12/18 03:14:31;;;;;;;68.40;33.50;;;1.30;99.90;;;;;;5110830;28;20034;-77
2022/12/18 03:17:01;;;;;;;74.78;32.65;;;1.30;99.90;;;;;;5093130;28;20024;-77
2022/12/18 03:19:31;;;;;;;66.40;32.15;;;1.30;99.90;;;;;;5092466;28;20656;-77
2022/12/18 03:21:58;;;;;;;77.43;35.42;;;1.30;99.90;;;;;;5089153;28;20086;-77
2022/12/18 03:24:28;;;;;;;62.45;32.10;;;1.30;99.90;;;;;;5090611;28;20032;-77
2022/12/18 03:26:58;;;;;;;76.60;36.53;;;1.30;99.90;;;;;;5090362;28;20028;-77
2022/12/18 03:29:38;;;;;;;78.50;38.05;;;1.30;99.90;;;;;;5090280;28;20028;-77
2022/12/18 03:32:14;;;;;;;72.65;36.72;;;1.30;99.90;;;;;;5090190;28;20554;-76
2022/12/18 03:34:44;;;;;;;79.18;41.03;;;1.30;99.90;;;;;;5071950;28;20031;-76
2022/12/18 03:37:10;;;;;;;81.88;41.30;;;1.30;99.90;;;;;;5072151;28;20027;-76
2022/12/18 03:39:35;;;;;;;;;;;1.30;99.90;;;;;;5090721;28;20036;-77
2022/12/18 03:42:20;;;;;;;85.55;41.05;;;1.30;99.90;;;;;;5072663;28;20418;-77
2022/12/18 03:45:01;;;;;;;96.90;46.13;;;1.30;99.90;;;;;;5071826;28;20024;-77
2022/12/18 03:47:37;;;;;;;105.07;49.55;;;1.30;99.90;;;;;;5090495;28;20027;-77
2022/12/18 03:50:20;;;;;;;85.35;43.88;;;1.30;99.90;;;;;;5072617;28;20067;-77
2022/12/18 03:53:18;;;;;;;80.82;39.78;;;1.30;99.90;;;;;;5072274;28;20119;-76
2022/12/18 03:55:45;;;;;;;80.30;39.15;;;1.30;99.90;;;;;;5075641;28;20046;-77
2022/12/18 03:58:16;;;;;;;72.68;35.65;;;1.30;99.90;;;;;;5072823;28;20067;-76
2022/12/18 04:00:43;;;;;;;75.03;36.33;;;1.30;99.90;;;;;;5072132;28;20051;-76
2022/12/18 04:03:10;;;;;;;69.47;36.17;;;1.20;99.90;;;;;;5090831;28;20035;-77
2022/12/18 04:05:37;;;;;;;74.93;36.55;;;1.20;99.90;;;;;;5071680;28;20110;-76
2022/12/18 04:08:03;;;;;;;67.25;34.42;;;1.30;99.90;;;;;;5072254;28;20031;-76
2022/12/18 04:10:29;;;;;;;76.40;36.33;;;1.30;99.90;;;;;;5089765;28;20032;-76
2022/12/18 04:12:58;;;;;;;;;;;1.30;99.90;;;;;;5091020;28;20074;-77
2022/12/18 04:15:24;;;;;;;70.65;33.50;;;1.20;99.90;;;;;;5090602;28;19966;-77
2022/12/18 04:17:50;;;;;;;;;;;1.20;99.90;;;;;;5090501;28;20031;-77
2022/12/18 04:20:16;;;;;;;69.22;34.17;;;1.20;99.90;;;;;;5096340;28;20455;-77
2022/12/18 04:22:42;;;;;;;71.97;34.90;;;1.20;99.90;;;;;;5109202;28;20492;-77
2022/12/18 04:25:08;;;;;;;;;;;1.10;99.90;;;;;;5111545;28;20069;-77
2022/12/18 04:27:34;;;;;;;70.63;33.80;;;1.20;99.90;;;;;;5093003;28;20427;-77
2022/12/18 04:29:59;;;;;;;;;;;1.10;99.90;;;;;;5110295;28;20423;-77
2022/12/18 04:32:25;;;;;;;82.70;37.78;;;1.10;99.90;;;;;;5110336;28;19965;-76
2022/12/18 04:34:50;;;;;;;;;;;1.10;99.90;;;;;;5110129;28;20028;-77
2022/12/18 04:37:16;;;;;;;68.93;35.17;;;1.20;99.90;;;;;;5109820;28;19908;-78
2022/12/18 04:39:42;;;;;;;;;;;1.20;99.90;;;;;;5093726;28;20032;-78
2022/12/18 04:42:08;;;;;;;92.32;42.53;;;1.20;99.90;;;;;;5093967;28;19916;-78
2022/12/18 04:44:34;;;;;;;;;;;1.20;99.90;;;;;;5110643;28;20058;-77
2022/12/18 04:46:59;;;;;;;98.45;41.55;;;1.20;99.90;;;;;;5093717;28;19907;-77
2022/12/18 04:49:25;;;;;;;;;;;1.10;99.90;;;;;;5110172;28;20514;-77
2022/12/18 04:51:51;;;;;;;80.80;34.88;;;1.10;99.90;;;;;;5109496;28;19908;-77
2022/12/18 04:54:17;;;;;;;68.00;32.38;;;1.00;99.90;;;;;;5110458;28;20028;-77
2022/12/18 04:56:42;;;;;;;;;;;1.00;99.90;;;;;;5110795;28;20434;-77
2022/12/18 04:59:08;;;;;;;93.25;41.38;;;1.00;99.90;;;;;;5094021;28;19904;-77
2022/12/18 05:01:33;;;;;;;;;;;0.90;99.90;;;;;;5096795;28;20031;-77
2022/12/18 05:03:59;;;;;;;81.70;37.45;;;0.80;99.90;;;;;;5093509;28;19911;-77
2022/12/18 05:06:24;;;;;;;;;;;0.70;99.90;;;;;;5106701;28;20036;-77
2022/12/18 05:08:50;;;;;;;76.30;34.60;;;0.70;99.90;;;;;;5108785;28;19939;-77
2022/12/18 05:11:16;;;;;;;;;;;0.60;99.90;;;;;;5107414;28;20023;-77
2022/12/18 05:13:42;;;;;;;107.05;43.25;;;0.60;99.90;;;;;;5108416;28;19911;-77
2022/12/18 05:16:08;;;;;;;101.15;44.75;;;0.50;99.90;;;;;;5090074;28;20024;-77
2022/12/18 05:18:35;;;;;;;105.55;45.25;;;0.40;99.90;;;;;;5107119;28;20028;-77
2022/12/18 05:21:01;;;;;;;94.22;41.60;;;0.40;99.90;;;;;;5076318;28;20048;-77
2022/12/18 05:23:26;;;;;;;;;;;0.30;99.90;;;;;;5069920;28;20411;-77
2022/12/18 05:25:54;;;;;;;123.55;49.45;;;0.30;99.90;;;;;;5069172;28;19915;-77
2022/12/18 05:28:21;;;;;;;102.28;42.63;;;0.20;99.90;;;;;;5069542;28;20082;-77
2022/12/18 05:30:51;;;;;;;94.03;40.35;;;0.20;99.90;;;;;;5069541;28;20101;-77
2022/12/18 05:33:18;;;;;;;86.75;36.35;;;0.10;99.90;;;;;;5069454;28;20131;-77
2022/12/18 05:35:44;;;;;;;97.53;41.03;;;0.10;99.90;;;;;;5086879;28;20023;-77
2022/12/18 05:38:09;;;;;;;;;;;0.10;99.90;;;;;;5088313;28;20123;-77
2022/12/18 05:40:36;;;;;;;97.93;41.30;;;0.00;99.90;;;;;;5069177;28;19911;-76
2022/12/18 05:43:02;;;;;;;100.05;42.60;;;0.00;99.90;;;;;;5069442;28;20448;-77
2022/12/18 05:45:27;;;;;;;;;;;0.00;99.90;;;;;;5069094;28;20534;-77
2022/12/18 05:47:53;;;;;;;104.25;42.70;;;-0.10;99.90;;;;;;5087284;28;20399;-77
2022/12/18 05:50:18;;;;;;;;;;;-0.10;99.90;;;;;;5070019;28;20798;-77
2022/12/18 05:52:44;;;;;;;96.03;38.50;;;-0.10;99.90;;;;;;5087591;28;19904;-77
2022/12/18 05:55:09;;;;;;;;;;;-0.10;99.90;;;;;;5088278;28;20024;-77
2022/12/18 05:57:35;;;;;;;93.15;37.60;;;-0.10;99.90;;;;;;5087256;28;19912;-78
2022/12/18 06:00:01;;;;;;;;;;;-0.20;99.90;;;;;;5088585;28;20037;-78
2022/12/18 06:02:26;;;;;;;92.18;33.65;;;-0.20;99.90;;;;;;5088670;28;19922;-78
2022/12/18 06:04:52;;;;;;;;;;;-0.10;99.90;;;;;;5087845;28;20497;-77
2022/12/18 06:07:18;;;;;;;88.95;36.45;;;-0.20;99.90;;;;;;5069563;28;20292;-77
2022/12/18 06:09:43;;;;;;;;;;;-0.20;99.90;;;;;;5087674;28;20044;-77
2022/12/18 06:12:09;;;;;;;93.22;39.10;;;-0.30;99.90;;;;;;5069329;28;19999;-77
2022/12/18 06:14:34;;;;;;;;;;;-0.30;99.90;;;;;;5070269;28;20400;-78
2022/12/18 06:17:00;;;;;;;99.10;38.78;;;-0.30;99.90;;;;;;5087467;28;20439;-77
2022/12/18 06:19:25;;;;;;;;;;;-0.30;99.90;;;;;;5088203;28;20032;-77
2022/12/18 06:21:51;;;;;;;99.88;41.60;;;-0.30;99.90;;;;;;5107064;28;20006;-77
2022/12/18 06:24:17;;;;;;;;;;;-0.40;99.90;;;;;;5108596;28;20027;-77
2022/12/18 06:26:42;;;;;;;96.38;38.13;;;-0.30;99.90;;;;;;5089934;28;19945;-77
2022/12/18 06:29:08;;;;;;;;;;;-0.40;99.90;;;;;;5090380;28;20036;-77
2022/12/18 06:31:34;;;;;;;83.43;33.47;;;-0.40;99.90;;;;;;5089288;28;19952;-77
2022/12/18 06:34:01;;;;;;;;;;;-0.40;99.90;;;;;;5090634;28;20074;-77
2022/12/18 06:36:30;;;;;;;85.13;36.15;;;-0.30;99.90;;;;;;5108283;28;19908;-76
2022/12/18 06:38:56;;;;;;;91.32;37.65;;;-0.50;99.90;;;;;;5108048;28;20024;-77
2022/12/18 06:41:22;;;;;;;93.43;38.17;;;-0.50;99.90;;;;;;5090027;28;20521;-76
2022/12/18 06:43:48;;;;;;;;;;;-0.50;99.90;;;;;;5089953;28;20038;-77
2022/12/18 06:46:14;;;;;;;99.57;37.55;;;-0.50;99.90;;;;;;5090295;28;19954;-77
2022/12/18 06:48:40;;;;;;;;;;;-0.50;99.90;;;;;;5107169;28;20031;-77
2022/12/18 06:51:06;;;;;;;137.85;60.55;;;-0.50;99.90;;;;;;5089404;28;20319;-77
2022/12/18 06:53:32;;;;;;;136.50;65.88;;;-0.60;99.90;;;;;;5089162;28;20053;-77
2022/12/18 06:56:02;;;;;;;124.05;60.17;;;-0.50;99.90;;;;;;5089103;28;20024;-77
2022/12/18 06:58:28;;;;;;;104.63;51.28;;;-0.50;99.90;;;;;;5092949;28;20059;-78
2022/12/18 07:00:53;;;;;;;;;;;-0.50;99.90;;;;;;5112176;28;20066;-77
2022/12/18 07:03:19;;;;;;;66.28;29.42;;;-0.40;99.90;;;;;;5092184;28;20291;-77
2022/12/18 07:05:44;;;;;;;;;;;-0.30;99.90;;;;;;5093382;28;20027;-77
2022/12/18 07:08:10;;;;;;;65.60;31.40;;;-0.20;99.90;;;;;;5093173;28;19907;-77
2022/12/18 07:10:42;;;;;;;;;;;0.00;99.90;;;;;;5094751;28;20070;-76
2022/12/18 07:13:08;;;;;;;74.10;36.20;;;0.20;99.90;;;;;;5093214;28;20295;-78
2022/12/18 07:15:33;;;;;;;;;;;0.40;99.90;;;;;;5094186;28;20427;-77
2022/12/18 07:17:59;;;;;;;69.97;31.48;;;0.60;99.90;;;;;;5094080;28;19904;-77
2022/12/18 07:20:24;;;;;;;;;;;0.90;99.90;;;;;;5111825;28;20557;-76
2022/12/18 07:22:50;;;;;;;50.97;23.60;;;1.10;99.90;;;;;;5110967;28;19938;-77
2022/12/18 07:25:16;;;;;;;;;;;1.30;99.90;;;;;;5114771;28;20530;-78
2022/12/18 07:27:41;;;;;;;51.78;23.80;;;1.60;99.90;;;;;;5099349;28;19912;-78
2022/12/18 07:30:07;;;;;;;;;;;1.70;99.90;;;;;;5096457;28;20059;-78
2022/12/18 07:32:34;;;;;;;46.88;24.42;;;1.80;99.90;;;;;;5092935;28;19942;-77
2022/12/18 07:34:59;;;;;;;46.88;25.27;;;2.00;99.90;;;;;;5110683;28;20361;-78
2022/12/18 07:37:25;;;;;;;;;;;2.00;99.90;;;;;;5110062;28;20077;-78
2022/12/18 07:39:51;;;;;;;68.13;33.95;;;2.10;99.90;;;;;;5092773;28;20425;-77
2022/12/18 07:42:31;;;;;;;;;;;2.40;99.90;;;;;;5093295;28;20174;-78
2022/12/18 07:45:01;;;;;;;81.43;39.35;;;2.40;99.90;;;;;;5111286;28;19947;-78
2022/12/18 07:47:27;;;;;;;67.80;38.10;;;2.70;99.90;;;;;;5091881;28;20073;-78
2022/12/18 07:49:53;;;;;;;79.68;46.67;;;2.90;99.90;;;;;;5093487;28;20091;-78
2022/12/18 07:52:19;;;;;;;;;;;3.00;99.90;;;;;;5092915;28;20134;-78
2022/12/18 07:54:45;;;;;;;74.82;39.40;;;3.00;99.90;;;;;;5091999;28;20394;-78
2022/12/18 07:57:10;;;;;;;;;;;3.00;99.90;;;;;;5111187;28;20535;-77
2022/12/18 07:59:37;;;;;;;75.18;42.88;;;3.00;99.90;;;;;;5110561;28;19957;-77
2022/12/18 08:02:02;;;;;;;;;;;3.00;99.90;;;;;;5111075;28;20047;-78
2022/12/18 08:04:28;;;;;;;82.60;46.60;;;2.90;99.90;;;;;;5109065;28;19912;-78
2022/12/18 08:06:54;;;;;;;;;;;2.90;99.90;;;;;;5109595;28;20035;-77
2022/12/18 08:09:19;;;;;;;95.22;51.35;;;2.90;99.90;;;;;;5109137;28;20372;-77
2022/12/18 08:11:45;;;;;;;;;;;2.80;99.90;;;;;;5092276;28;20027;-78
2022/12/18 08:14:11;;;;;;;94.53;49.65;;;2.80;99.90;;;;;;5110255;28;19995;-78
2022/12/18 08:16:36;;;;;;;;;;;2.70;99.90;;;;;;5091924;28;20027;-78
2022/12/18 08:19:02;;;;;;;101.15;54.03;;;2.70;99.90;;;;;;5091681;28;20376;-77
2022/12/18 08:21:28;;;;;;;;;;;2.60;99.90;;;;;;5092495;28;20734;-77
2022/12/18 08:23:58;;;;;;;62.10;31.50;;;2.60;99.90;;;;;;5092465;28;19964;-77
2022/12/18 08:26:25;;;;;;;55.30;29.55;;;2.60;99.90;;;;;;5092403;28;20032;-77
2022/12/18 08:28:51;;;;;;;56.50;29.27;;;2.70;99.90;;;;;;5091162;28;20027;-77
2022/12/18 08:31:18;;;;;;;54.72;30.77;;;2.80;99.90;;;;;;5109961;28;20027;-77
2022/12/18 08:33:44;;;;;;;55.22;30.92;;;2.80;99.90;;;;;;5109768;28;20034;-77
2022/12/18 08:36:09;;;;;;;;;;;3.00;99.90;;;;;;5092923;28;20369;-77
2022/12/18 08:38:35;;;;;;;42.88;22.63;;;3.00;99.90;;;;;;5091710;28;19915;-77
2022/12/18 08:41:05;;;;;;;;;;;3.00;99.90;;;;;;5093131;28;20022;-78
2022/12/18 08:46:17;;;;;;;53.53;27.90;;;3.00;99.90;;;;;;5111154;28;20085;-78
2022/12/18 08:48:43;;;;;;;46.80;25.38;;;3.00;99.90;;;;;;5109923;28;20094;-78
2022/12/18 08:51:09;;;;;;;;;;;3.10;99.90;;;;;;5092625;28;20504;-78
2022/12/18 08:53:35;;;;;;;55.15;30.13;;;3.10;99.90;;;;;;5092065;28;19907;-77
2022/12/18 08:56:01;;;;;;;58.85;31.08;;;3.20;99.90;;;;;;5092791;28;20718;-77
2022/12/18 08:58:27;;;;;;;68.47;37.25;;;3.20;99.90;;;;;;5110139;28;20035;-78
2022/12/18 09:00:53;;;;;;;;;;;3.20;99.90;;;;;;5110034;28;20037;-77
2022/12/18 09:03:19;;;;;;;65.13;33.45;;;3.20;99.90;;;;;;5091945;28;19916;-78
2022/12/18 09:05:48;;;;;;;63.90;34.20;;;3.20;99.90;;;;;;5110614;28;20024;-77
2022/12/18 09:08:14;;;;;;;48.08;26.13;;;3.20;99.90;;;;;;5092657;28;20031;-78
2022/12/18 09:10:47;;;;;;;;;;;3.20;99.90;;;;;;5092908;28;20039;-77
2022/12/18 09:13:14;;;;;;;44.45;23.17;;;3.20;99.90;;;;;;5110426;28;20372;-76
2022/12/18 09:15:50;;;;;;;45.33;24.83;;;3.20;99.90;;;;;;5111370;28;20054;-78
2022/12/18 09:18:17;;;;;;;49.65;26.60;;;3.30;99.90;;;;;;5092312;28;20388;-78
2022/12/18 09:20:43;;;;;;;64.03;29.48;;;3.30;99.90;;;;;;5110018;28;20461;-78
2022/12/18 09:23:09;;;;;;;58.90;29.98;;;3.30;99.90;;;;;;5091946;28;20035;-77
2022/12/18 09:25:35;;;;;;;60.17;30.35;;;3.30;99.90;;;;;;5111280;28;20507;-78
2022/12/18 09:28:12;;;;;;;;;;;3.30;99.90;;;;;;5093099;28;20031;-77
2022/12/18 09:30:40;;;;;;;62.40;33.95;;;3.30;99.90;;;;;;5093168;28;19915;-77
2022/12/18 09:33:06;;;;;;;65.43;35.63;;;3.40;99.90;;;;;;5091457;28;20042;-77
2022/12/18 09:35:31;;;;;;;;;;;3.40;99.90;;;;;;5092968;28;20023;-78
2022/12/18 09:37:57;;;;;;;57.45;32.08;;;3.50;99.90;;;;;;5092159;28;20489;-77
2022/12/18 09:40:25;;;;;;;;;;;3.50;99.90;;;;;;5111112;28;20079;-77
2022/12/18 09:43:04;;;;;;;63.22;33.30;;;3.60;99.90;;;;;;5092924;28;20010;-77
2022/12/18 09:45:44;;;;;;;69.05;34.08;;;3.70;99.90;;;;;;5111159;28;20023;-78
2022/12/18 09:48:25;;;;;;;66.30;36.25;;;3.80;99.90;;;;;;5091427;28;20054;-77
2022/12/18 09:50:55;;;;;;;68.85;35.60;;;3.80;99.90;;;;;;5093649;28;20031;-78
2022/12/18 09:53:26;;;;;;;71.45;37.25;;;3.90;99.90;;;;;;5091638;28;20101;-78
2022/12/18 09:55:54;;;;;;;62.30;33.67;;;3.90;99.90;;;;;;5093101;28;20043;-77
2022/12/18 09:58:39;;;;;;;64.60;34.95;;;3.90;99.90;;;;;;5090640;28;20027;-77
2022/12/18 10:01:18;;;;;;;68.03;36.38;;;4.00;99.90;;;;;;5089459;28;20032;-77
2022/12/18 10:03:43;;;;;;;70.20;36.17;;;4.10;99.90;;;;;;5089458;28;20376;-78
2022/12/18 10:06:21;;;;;;;;;;;4.10;99.90;;;;;;5090544;28;20488;-77
2022/12/18 10:09:19;;;;;;;61.95;33.85;;;4.10;99.90;;;;;;5108270;28;19939;-78
2022/12/18 10:12:06;;;;;;;59.45;30.70;;;4.20;99.90;;;;;;5074995;28;20058;-77
2022/12/18 10:14:53;;;;;;;60.78;37.42;;;4.20;99.90;;;;;;5108048;28;20055;-78
2022/12/18 10:17:54;;;;;;;54.38;29.70;;;4.40;99.90;;;;;;5108019;28;20020;-77
2022/12/18 10:20:19;;;;;;;59.17;30.92;;;4.50;99.90;;;;;;5089980;28;20062;-78
2022/12/18 10:23:01;;;;;;;;;;;4.50;99.90;;;;;;5090225;28;20031;-77
2022/12/18 10:25:59;;;;;;;69.80;39.38;;;4.50;99.90;;;;;;5089178;28;19953;-77
2022/12/18 10:28:26;;;;;;;56.35;31.25;;;4.30;99.90;;;;;;5108897;28;20032;-77
2022/12/18 10:30:52;;;;;;;56.63;30.80;;;4.20;99.90;;;;;;5110437;28;20031;-77
2022/12/18 10:33:19;;;;;;;;;;;4.10;99.90;;;;;;5094905;28;20040;-78
2022/12/18 10:35:46;;;;;;;;;;;4.00;99.90;;;;;;5112590;28;19911;-78
2022/12/18 10:38:11;;;;;;;58.08;30.50;;;3.80;99.90;;;;;;5112165;28;19907;-78
2022/12/18 10:40:51;;;;;;;;;;;3.60;99.90;;;;;;5095513;28;20560;-77
2022/12/18 10:43:30;;;;;;;93.82;47.47;;;3.50;99.90;;;;;;5113643;28;19916;-77
2022/12/18 10:46:03;;;;;;;62.10;30.45;;;3.50;99.90;;;;;;5094186;28;20334;-77
2022/12/18 10:48:30;;;;;;;52.88;27.42;;;3.40;99.90;;;;;;5093608;28;20081;-77
2022/12/18 10:50:57;;;;;;;62.60;30.75;;;3.30;99.90;;;;;;5111559;28;20026;-77
2022/12/18 10:53:28;;;;;;;57.15;29.42;;;3.30;99.90;;;;;;5092525;28;20110;-78
2022/12/18 10:55:57;;;;;;;57.95;30.15;;;3.30;99.90;;;;;;5111504;28;20051;-77
2022/12/18 10:58:23;;;;;;;53.47;28.60;;;3.30;99.90;;;;;;5094490;28;20023;-77
2022/12/18 11:01:04;;;;;;;;;;;3.30;99.90;;;;;;5094025;28;20114;-78
2022/12/18 11:03:50;;;;;;;54.88;27.13;;;3.30;99.90;;;;;;5113145;28;19916;-78
2022/12/18 11:06:22;;;;;;;53.75;25.77;;;3.30;99.90;;;;;;5094303;28;20340;-78
2022/12/18 11:09:02;;;;;;;49.80;26.30;;;3.30;99.90;;;;;;5094739;28;20027;-78
2022/12/18 11:11:29;;;;;;;56.08;28.65;;;3.30;99.90;;;;;;5112872;28;20020;-78
2022/12/18 11:14:12;;;;;;;56.45;29.77;;;3.40;99.90;;;;;;5094595;28;20059;-78
2022/12/18 11:16:49;;;;;;;56.53;29.50;;;3.40;99.90;;;;;;5094693;28;20097;-79
2022/12/18 11:19:27;;;;;;;56.58;29.08;;;3.40;99.90;;;;;;5095265;28;20024;-78
2022/12/18 11:21:53;;;;;;;47.28;24.45;;;3.30;99.90;;;;;;5112212;28;20066;-78
2022/12/18 11:24:21;;;;;;;;;;;3.40;99.90;;;;;;5095290;28;20395;-78
2022/12/18 11:26:47;;;;;;;50.97;25.23;;;3.40;99.90;;;;;;5094571;28;19907;-77
2022/12/18 11:29:18;;;;;;;49.90;25.73;;;3.40;99.90;;;;;;5113089;28;20020;-77
2022/12/18 11:31:44;;;;;;;52.78;27.63;;;3.40;99.90;;;;;;5094483;28;20740;-78
2022/12/18 11:34:30;;;;;;;;;;;3.40;99.90;;;;;;5114126;28;20028;-77
2022/12/18 11:36:59;;;;;;;39.45;20.77;;;3.50;99.90;;;;;;5113248;28;19939;-78
2022/12/18 11:39:40;;;;;;;40.08;22.15;;;3.60;99.90;;;;;;5113313;28;20499;-78
2022/12/18 11:42:12;;;;;;;41.92;22.92;;;3.50;99.90;;;;;;5092928;28;20062;-77
2022/12/18 11:44:51;;;;;;;45.00;21.88;;;3.50;99.90;;;;;;5093637;28;20506;-78
2022/12/18 11:47:41;;;;;;;42.92;22.38;;;3.50;99.90;;;;;;5112781;28;20040;-77
2022/12/18 11:50:23;;;;;;;48.72;24.02;;;3.50;99.90;;;;;;5112673;28;20030;-77
2022/12/18 11:52:49;;;;;;;45.53;22.63;;;3.50;99.90;;;;;;5093989;28;20024;-78
2022/12/18 11:55:18;;;;;;;;;;;3.50;99.90;;;;;;5113747;28;20103;-78
2022/12/18 11:58:05;;;;;;;38.42;19.17;;;3.40;99.90;;;;;;5095104;28;19904;-77
2022/12/18 12:00:34;;;;;;;37.67;19.38;;;3.40;99.90;;;;;;5112520;28;20034;-78
2022/12/18 12:03:06;;;;;;;39.80;19.77;;;3.40;99.90;;;;;;5113473;28;20507;-79
2022/12/18 12:05:58;;;;;;;39.78;21.10;;;3.40;99.90;;;;;;5112288;28;20068;-78
2022/12/18 12:08:41;;;;;;;38.00;20.35;;;3.40;99.90;;;;;;5055967;28;20044;-78
2022/12/18 12:11:46;;;;;;;40.20;20.98;;;3.30;99.90;;;;;;5112977;28;20023;-78
2022/12/18 12:14:49;;;;;;;37.45;19.45;;;3.30;99.90;;;;;;5113530;28;20030;-78
2022/12/18 12:17:33;;;;;;;40.63;22.00;;;3.30;99.90;;;;;;5095783;28;20040;-78
2022/12/18 12:20:30;;;;;;;37.42;19.80;;;3.30;99.90;;;;;;5096080;27;20027;-78
2022/12/18 12:23:07;;;;;;;35.60;18.42;;;3.20;99.90;;;;;;5092058;28;20036;-78
2022/12/18 12:25:53;;;;;;;36.05;19.10;;;3.30;99.90;;;;;;5091299;28;20140;-78
2022/12/18 12:28:57;;;;;;;36.67;18.92;;;3.30;99.90;;;;;;5087401;28;20034;-77
2022/12/18 12:31:45;;;;;;;31.65;17.23;;;3.30;99.90;;;;;;5056575;28;20040;-78
2022/12/18 12:34:33;;;;;;;36.28;17.27;;;3.30;99.90;;;;;;5092284;28;20020;-78
2022/12/18 12:37:06;;;;;;;33.35;17.30;;;3.30;99.90;;;;;;5092081;28;20077;-79
2022/12/18 12:39:36;;;;;;;35.95;18.67;;;3.30;99.90;;;;;;5109826;28;20453;-78
2022/12/18 12:44:58;;;;;;;32.53;17.00;;;3.20;99.90;;;;;;5109986;28;20100;-79
2022/12/18 12:47:30;;;;;;;35.67;17.45;;;3.30;99.90;;;;;;5109505;28;20029;-77
2022/12/18 12:49:58;;;;;;;33.63;17.45;;;3.20;99.90;;;;;;5091296;28;20431;-78
2022/12/18 12:53:00;;;;;;;33.47;16.42;;;3.30;99.90;;;;;;5109402;28;20030;-77
2022/12/18 12:55:28;;;;;;;29.80;14.77;;;3.20;99.90;;;;;;4990988;28;20033;-79
2022/12/18 12:58:14;;;;;;;34.65;16.48;;;3.20;99.90;;;;;;5074011;28;20069;-78
2022/12/18 13:00:49;;;;;;;27.98;14.32;;;3.20;99.90;;;;;;5090875;28;20415;-78
2022/12/18 13:03:33;;;;;;;26.88;13.80;;;3.20;99.90;;;;;;5091747;28;20047;-78
2022/12/18 13:06:03;;;;;;;26.83;12.90;;;3.30;99.90;;;;;;5109790;28;20034;-78
2022/12/18 13:08:31;;;;;;;20.58;9.68;;;3.20;99.90;;;;;;5091064;28;20031;-78
2022/12/18 13:13:55;;;;;;;20.52;11.32;;;3.20;99.90;;;;;;5110257;28;20023;-78
2022/12/18 13:16:24;;;;;;;20.30;9.82;;;3.20;99.90;;;;;;5090894;28;20357;-78
2022/12/18 13:18:52;;;;;;;24.02;12.43;;;3.10;99.90;;;;;;5091556;28;20035;-78
2022/12/18 13:21:23;;;;;;;27.95;14.65;;;3.10;99.90;;;;;;5090370;28;20093;-78
2022/12/18 13:23:51;;;;;;;26.58;14.48;;;3.10;99.90;;;;;;5090676;28;20553;-78
2022/12/18 13:26:16;;;;;;;31.10;15.63;;;3.00;99.90;;;;;;5090962;28;20044;-78
2022/12/18 13:28:48;;;;;;;;;;;3.00;99.90;;;;;;5091721;28;20068;-78
2022/12/18 13:31:34;;;;;;;22.35;10.73;;;3.00;99.90;;;;;;5109125;28;20002;-78